Time;durP1;ratioP1;P1;durP2;ratioP2;P2;SDS_P1;SDS_P2;PMS_P1;PMS_P2;Temp;Humidity;BMP_temperature;BMP_pressure;BME280_temperature;BME280_humidity;BME280_pressure;Samples;Min_cycle;Max_cycle;Signal;HPM_P1;HPM_P2
2022/10/15 00:01:24;;;;;;;;;;;11.50;99.90;;;;;;5075652;28;19934;-71
2022/10/15 00:03:50;;;;;;;;;;;11.50;99.90;;;;;;5075733;28;19962;-71
2022/10/15 00:06:18;;;;;;;;;;;11.50;99.90;;;;;;5075695;28;20330;-71
2022/10/15 00:08:44;;;;;;;;;;;11.50;99.90;;;;;;5075759;28;19908;-71
2022/10/15 00:11:12;;;;;;;;;;;11.50;99.90;;;;;;5075580;28;19999;-71
2022/10/15 00:13:37;;;;;;;;;;;11.50;99.90;;;;;;5075474;28;19912;-71
2022/10/15 00:16:05;;;;;;;;;;;11.50;99.90;;;;;;5075830;28;19935;-71
2022/10/15 00:18:31;;;;;;;;;;;11.50;99.90;;;;;;5075390;28;19975;-71
2022/10/15 00:20:56;;;;;;;;;;;11.50;99.90;;;;;;5075384;28;20322;-71
2022/10/15 00:23:22;;;;;;;;;;;11.40;99.90;;;;;;5075674;28;19982;-71
2022/10/15 00:25:47;;;;;;;;;;;11.40;99.90;;;;;;5075844;28;19912;-70
2022/10/15 00:28:13;;;;;;;;;;;11.40;99.90;;;;;;5075158;28;20053;-70
2022/10/15 00:30:38;;;;;;;;;;;11.50;99.90;;;;;;5074956;28;19912;-70
2022/10/15 00:33:04;;;;;;;;;;;11.50;99.90;;;;;;5075303;28;19916;-70
2022/10/15 00:35:29;;;;;;;;;;;11.50;99.90;;;;;;5075103;28;20007;-70
2022/10/15 00:37:55;;;;;;;;;;;11.40;99.90;;;;;;5075329;28;19913;-70
2022/10/15 00:40:21;;;;;;;;;;;11.40;99.90;;;;;;5074798;28;19924;-70
2022/10/15 00:42:47;;;;;;;;;;;11.30;99.90;;;;;;5075219;28;19965;-71
2022/10/15 00:45:14;;;;;;;;;;;11.30;99.90;;;;;;5073402;28;19916;-71
2022/10/15 00:47:44;;;;;;;;;;;11.30;99.90;;;;;;5074850;28;19909;-71
2022/10/15 00:50:15;;;;;;;;;;;11.30;99.90;;;;;;5074716;28;19908;-71
2022/10/15 00:52:44;;;;;;;;;;;11.30;99.90;;;;;;5074669;28;19934;-71
2022/10/15 00:55:25;;;;;;;;;;;11.30;99.90;;;;;;5074684;28;19920;-71
2022/10/15 00:57:51;;;;;;;;;;;11.40;99.90;;;;;;5074132;28;19909;-71
2022/10/15 01:00:17;;;;;;;;;;;11.40;99.90;;;;;;5074333;28;19909;-72
2022/10/15 01:02:43;;;;;;;;;;;11.50;99.90;;;;;;5074545;28;19916;-72
2022/10/15 01:05:09;;;;;;;;;;;11.40;99.90;;;;;;5074460;28;19919;-71
2022/10/15 01:07:35;;;;;;;;;;;11.50;99.90;;;;;;5073190;28;19912;-71
2022/10/15 01:10:01;;;;;;;;;;;11.50;99.90;;;;;;5074317;28;19923;-71
2022/10/15 01:12:32;;;;;;;;;;;11.50;99.90;;;;;;5074273;28;20414;-71
2022/10/15 01:15:18;;;;;;;;;;;11.50;99.90;;;;;;5074586;28;19908;-70
2022/10/15 01:17:46;;;;;;;;;;;11.50;99.90;;;;;;5073686;28;19908;-70
2022/10/15 01:20:24;;;;;;;;;;;11.50;99.90;;;;;;5074145;28;20261;-70
2022/10/15 01:22:52;;;;;;;;;;;11.50;99.90;;;;;;5074192;28;19909;-70
2022/10/15 01:25:36;;;;;;;;;;;11.50;99.90;;;;;;5074142;28;20280;-70
2022/10/15 01:28:19;;;;;;;;;;;11.50;99.90;;;;;;5074098;28;19916;-71
2022/10/15 01:30:47;;;;;;;;;;;11.50;99.90;;;;;;5073988;28;19908;-71
2022/10/15 01:33:15;;;;;;;;;;;11.50;99.90;;;;;;5073901;28;19961;-71
2022/10/15 01:36:04;;;;;;;;;;;11.50;99.90;;;;;;5073996;28;19909;-71
2022/10/15 01:38:45;;;;;;;;;;;11.50;99.90;;;;;;5063004;28;19999;-71
2022/10/15 01:41:16;;;;;;;;;;;11.50;99.90;;;;;;5073831;28;20260;-71
2022/10/15 01:43:57;;;;;;;;;;;11.50;99.90;;;;;;5073839;28;19993;-71
2022/10/15 01:46:32;;;;;;;;;;;11.40;99.90;;;;;;5073616;28;19912;-71
2022/10/15 01:48:59;;;;;;;;;;;11.30;99.90;;;;;;5073685;28;19915;-71
2022/10/15 01:51:26;;;;;;;;;;;11.40;99.90;;;;;;5074107;28;19915;-72
2022/10/15 01:53:52;;;;;;;;;;;11.40;99.90;;;;;;5074510;28;19923;-72
2022/10/15 01:56:19;;;;;;;;;;;11.40;99.90;;;;;;5072544;28;20372;-72
2022/10/15 01:58:46;;;;;;;;;;;11.40;99.90;;;;;;5074338;28;19974;-71
2022/10/15 02:01:11;;;;;;;;;;;11.30;99.90;;;;;;5073581;28;19955;-71
2022/10/15 02:03:47;;;;;;;;;;;11.30;99.90;;;;;;5073690;28;19912;-71
2022/10/15 02:06:17;;;;;;;;;;;11.30;99.90;;;;;;5073693;28;19959;-70
2022/10/15 02:08:58;;;;;;;;;;;11.30;99.90;;;;;;5073468;28;19909;-70
2022/10/15 02:11:24;;;;;;;;;;;11.30;99.90;;;;;;5073651;28;20396;-71
2022/10/15 02:13:51;;;;;;;;;;;11.30;99.90;;;;;;5074039;28;19921;-71
2022/10/15 02:16:19;;;;;;;;;;;11.30;99.90;;;;;;5072050;28;19991;-71
2022/10/15 02:19:08;;;;;;;;;;;11.30;99.90;;;;;;5073399;28;19909;-71
2022/10/15 02:21:49;;;;;;;;;;;11.40;99.90;;;;;;5062615;28;19912;-71
2022/10/15 02:24:26;;;;;;;;;;;11.40;99.90;;;;;;5073762;28;19908;-71
2022/10/15 02:26:53;;;;;;;;;;;11.40;99.90;;;;;;5072197;28;19951;-71
2022/10/15 02:29:21;;;;;;;;;;;11.40;99.90;;;;;;5073652;28;20014;-71
2022/10/15 02:31:48;;;;;;;;;;;11.40;99.90;;;;;;5073145;28;19961;-71
2022/10/15 02:34:16;;;;;;;;;;;11.40;99.90;;;;;;5073306;28;20364;-71
2022/10/15 02:36:41;;;;;;;;;;;11.40;99.90;;;;;;5073333;28;19999;-71
2022/10/15 02:39:10;;;;;;;;;;;11.40;99.90;;;;;;5073291;28;19959;-72
2022/10/15 02:41:35;;;;;;;;;;;11.40;99.90;;;;;;5073305;28;19946;-72
2022/10/15 02:44:02;;;;;;;;;;;11.40;99.90;;;;;;5073863;28;19966;-72
2022/10/15 02:46:27;;;;;;;;;;;11.40;99.90;;;;;;5073045;28;19970;-72
2022/10/15 02:48:53;;;;;;;;;;;11.40;99.90;;;;;;5073118;28;20268;-72
2022/10/15 02:51:18;;;;;;;;;;;11.40;99.90;;;;;;5073166;28;20332;-72
2022/10/15 02:53:44;;;;;;;;;;;11.40;99.90;;;;;;5073086;28;20394;-72
2022/10/15 02:56:09;;;;;;;;;;;11.40;99.90;;;;;;5072205;28;20288;-72
2022/10/15 02:58:35;;;;;;;;;;;11.40;99.90;;;;;;5073326;28;19913;-71
2022/10/15 03:01:01;;;;;;;;;;;11.40;99.90;;;;;;5073090;28;19916;-72
2022/10/15 03:03:26;;;;;;;;;;;11.30;99.90;;;;;;5073369;28;19999;-71
2022/10/15 03:05:52;;;;;;;;;;;11.30;99.90;;;;;;5073295;28;19916;-71
2022/10/15 03:08:17;;;;;;;;;;;11.30;99.90;;;;;;5073524;28;19920;-71
2022/10/15 03:10:44;;;;;;;;;;;11.30;99.90;;;;;;5072940;28;19920;-72
2022/10/15 03:13:10;;;;;;;;;;;11.30;99.90;;;;;;5072945;28;19924;-71
2022/10/15 03:15:36;;;;;;;;;;;11.30;99.90;;;;;;5072703;28;19913;-72
2022/10/15 03:18:01;;;;;;;;;;;11.40;99.90;;;;;;5072902;28;19966;-71
2022/10/15 03:20:27;;;;;;;;;;;11.40;99.90;;;;;;5073609;28;19908;-72
2022/10/15 03:22:52;;;;;;;;;;;11.40;99.90;;;;;;5076551;28;19913;-71
2022/10/15 03:25:18;;;;;;;;;;;11.40;99.90;;;;;;5076471;28;19916;-72
2022/10/15 03:27:43;;;;;;;;;;;11.30;99.90;;;;;;5076431;28;20272;-71
2022/10/15 03:30:09;;;;;;;;;;;11.40;99.90;;;;;;5058339;28;19919;-71
2022/10/15 03:32:35;;;;;;;;;;;11.40;99.90;;;;;;5076187;28;20364;-71
2022/10/15 03:35:00;;;;;;;;;;;11.40;99.90;;;;;;5075072;28;20470;-71
2022/10/15 03:37:26;;;;;;;;;;;11.40;99.90;;;;;;5076096;28;19913;-72
2022/10/15 03:39:51;;;;;;;;;;;11.40;99.90;;;;;;5074531;28;20436;-72
2022/10/15 03:42:17;;;;;;;;;;;11.40;99.90;;;;;;5075766;28;20269;-72
2022/10/15 03:44:42;;;;;;;;;;;11.40;99.90;;;;;;5074794;28;20265;-72
2022/10/15 03:47:08;;;;;;;;;;;11.40;99.90;;;;;;5075699;28;19917;-72
2022/10/15 03:49:33;;;;;;;;;;;11.30;99.90;;;;;;5072348;28;19916;-72
2022/10/15 03:51:59;;;;;;;;;;;11.30;99.90;;;;;;5074776;28;19999;-72
2022/10/15 03:54:24;;;;;;;;;;;11.30;99.90;;;;;;5071746;28;20055;-72
2022/10/15 03:56:50;;;;;;;;;;;11.20;99.90;;;;;;5073287;28;19958;-72
2022/10/15 03:59:15;;;;;;;;;;;11.20;99.90;;;;;;5074707;28;19908;-72
2022/10/15 04:01:42;;;;;;;;;;;11.30;99.90;;;;;;5075100;28;19916;-70
2022/10/15 04:04:09;;;;;;;;;;;11.30;99.90;;;;;;5075003;28;19918;-71
2022/10/15 04:06:35;;;;;;;;;;;11.30;99.90;;;;;;5075074;28;19916;-71
2022/10/15 04:09:00;;;;;;;;;;;11.30;99.90;;;;;;5075454;28;19962;-71
2022/10/15 04:11:26;;;;;;;;;;;11.20;99.90;;;;;;5074283;28;19912;-71
2022/10/15 04:13:51;;;;;;;;;;;11.20;99.90;;;;;;5075295;28;19942;-71
2022/10/15 04:16:17;;;;;;;;;;;11.30;99.90;;;;;;5073857;28;19913;-70
2022/10/15 04:18:42;;;;;;;;;;;11.20;99.90;;;;;;5075230;28;19912;-71
2022/10/15 04:21:08;;;;;;;;;;;11.20;99.90;;;;;;5072743;28;19951;-71
2022/10/15 04:23:34;;;;;;;;;;;11.30;99.90;;;;;;5075130;28;19909;-71
2022/10/15 04:26:00;;;;;;;;;;;11.20;99.90;;;;;;5073948;28;19984;-71
2022/10/15 04:28:26;;;;;;;;;;;11.30;99.90;;;;;;5073901;28;19920;-71
2022/10/15 04:30:55;;;;;;;;;;;11.20;99.90;;;;;;5067744;28;19917;-71
2022/10/15 04:33:20;;;;;;;;;;;11.20;99.90;;;;;;5068202;28;20450;-71
2022/10/15 04:35:46;;;;;;;;;;;11.20;99.90;;;;;;5074932;28;19944;-71
2022/10/15 04:38:11;;;;;;;;;;;11.20;99.90;;;;;;5074025;28;20007;-71
2022/10/15 04:40:38;;;;;;;;;;;11.20;99.90;;;;;;5074718;28;19951;-71
2022/10/15 04:43:03;;;;;;;;;;;11.20;99.90;;;;;;5074765;28;19979;-71
2022/10/15 04:45:29;;;;;;;;;;;11.20;99.90;;;;;;5074535;28;20365;-70
2022/10/15 04:47:55;;;;;;;;;;;11.10;99.90;;;;;;5074467;28;19913;-70
2022/10/15 04:50:21;;;;;;;;;;;11.10;99.90;;;;;;5073779;28;20372;-70
2022/10/15 04:52:47;;;;;;;;;;;11.10;99.90;;;;;;5073210;28;19909;-69
2022/10/15 04:55:13;;;;;;;;;;;11.10;99.90;;;;;;5074515;28;19920;-70
2022/10/15 04:57:38;;;;;;;;;;;11.10;99.90;;;;;;5074531;28;20284;-70
2022/10/15 05:00:05;;;;;;;;;;;11.10;99.90;;;;;;5074257;28;19913;-70
2022/10/15 05:02:31;;;;;;;;;;;11.10;99.90;;;;;;5073930;28;19917;-70
2022/10/15 05:04:57;;;;;;;;;;;11.10;99.90;;;;;;5074322;28;19909;-70
2022/10/15 05:07:23;;;;;;;;;;;11.10;99.90;;;;;;5074310;28;19908;-70
2022/10/15 05:09:48;;;;;;;;;;;11.10;99.90;;;;;;5072858;28;19923;-70
2022/10/15 05:12:14;;;;;;;;;;;11.10;99.90;;;;;;5074288;28;19912;-71
2022/10/15 05:14:40;;;;;;;;;;;11.10;99.90;;;;;;5074094;28;20011;-71
2022/10/15 05:17:06;;;;;;;;;;;11.10;99.90;;;;;;5073639;28;20388;-71
2022/10/15 05:19:31;;;;;;;;;;;11.10;99.90;;;;;;5073989;28;19923;-71
2022/10/15 05:21:57;;;;;;;;;;;11.10;99.90;;;;;;5074000;28;19913;-71
2022/10/15 05:24:22;;;;;;;;;;;11.10;99.90;;;;;;5072696;28;19919;-70
2022/10/15 05:26:48;;;;;;;;;;;11.20;99.90;;;;;;5074062;28;19912;-70
2022/10/15 05:29:13;;;;;;;;;;;11.20;99.90;;;;;;5072673;28;19955;-70
2022/10/15 05:31:39;;;;;;;;;;;11.20;99.90;;;;;;5073753;28;19919;-70
2022/10/15 05:34:06;;;;;;;;;;;11.20;99.90;;;;;;5074086;28;19923;-70
2022/10/15 05:36:31;;;;;;;;;;;11.20;99.90;;;;;;5073945;28;19916;-70
2022/10/15 05:38:59;;;;;;;;;;;11.20;99.90;;;;;;5073544;28;19917;-71
2022/10/15 05:41:24;;;;;;;;;;;11.20;99.90;;;;;;5073880;28;19975;-70
2022/10/15 05:43:51;;;;;;;;;;;11.20;99.90;;;;;;5073446;28;19936;-71
2022/10/15 05:46:17;;;;;;;;;;;11.20;99.90;;;;;;5073890;28;20003;-70
2022/10/15 05:48:46;;;;;;;;;;;11.20;99.90;;;;;;5073748;28;19913;-70
2022/10/15 05:51:12;;;;;;;;;;;11.20;99.90;;;;;;5073762;28;19962;-71
2022/10/15 05:53:38;;;;;;;;;;;11.20;99.90;;;;;;5073679;28;20399;-71
2022/10/15 05:56:04;;;;;;;;;;;11.20;99.90;;;;;;5073669;28;19913;-71
2022/10/15 05:58:31;;;;;;;;;;;11.10;99.90;;;;;;5073866;28;20280;-71
2022/10/15 06:00:58;;;;;;;;;;;11.20;99.90;;;;;;5073408;28;19909;-70
2022/10/15 06:03:24;;;;;;;;;;;11.20;99.90;;;;;;5073904;28;19909;-70
2022/10/15 06:05:49;;;;;;;;;;;11.20;99.90;;;;;;5073913;28;19963;-70
2022/10/15 06:08:15;;;;;;;;;;;11.20;99.90;;;;;;5073724;28;20440;-70
2022/10/15 06:10:41;;;;;;;;;;;11.20;99.90;;;;;;5073749;28;19915;-70
2022/10/15 06:13:07;;;;;;;;;;;11.20;99.90;;;;;;5073719;28;20422;-71
2022/10/15 06:15:32;;;;;;;;;;;11.10;99.90;;;;;;5073464;28;19944;-71
2022/10/15 06:17:58;;;;;;;;;;;11.20;99.90;;;;;;5073241;28;19913;-70
2022/10/15 06:20:24;;;;;;;;;;;11.20;99.90;;;;;;5073358;28;19908;-70
2022/10/15 06:22:49;;;;;;;;;;;11.10;99.90;;;;;;5073718;28;19908;-71
2022/10/15 06:25:15;;;;;;;;;;;11.20;99.90;;;;;;5073916;28;19916;-71
2022/10/15 06:27:40;;;;;;;;;;;11.20;99.90;;;;;;5072380;28;19913;-70
2022/10/15 06:30:07;;;;;;;;;;;11.20;99.90;;;;;;5073299;28;19938;-70
2022/10/15 06:32:32;;;;;;;;;;;11.20;99.90;;;;;;5073146;28;20376;-70
2022/10/15 06:34:58;;;;;;;;;;;11.20;99.90;;;;;;5073262;28;19919;-71
2022/10/15 06:37:23;;;;;;;;;;;11.20;99.90;;;;;;5073788;28;19934;-70
2022/10/15 06:39:49;;;;;;;;;;;11.20;99.90;;;;;;5073068;28;19924;-71
2022/10/15 06:42:14;;;;;;;;;;;11.20;99.90;;;;;;5073182;28;20019;-71
2022/10/15 06:44:40;;;;;;;;;;;11.20;99.90;;;;;;5073451;28;19935;-71
2022/10/15 06:47:06;;;;;;;;;;;11.20;99.90;;;;;;5072960;28;19912;-70
2022/10/15 06:49:31;;;;;;;;;;;11.30;99.90;;;;;;5073081;28;19919;-71
2022/10/15 06:51:57;;;;;;;;;;;11.30;99.90;;;;;;5073155;28;19918;-71
2022/10/15 06:54:23;;;;;;;;;;;11.30;99.90;;;;;;5073340;28;20300;-70
2022/10/15 06:56:49;;;;;;;;;;;11.30;99.90;;;;;;5076168;28;19915;-70
2022/10/15 06:59:15;;;;;;;;;;;11.30;99.90;;;;;;5077016;28;19912;-70
2022/10/15 07:01:40;;;;;;;;;;;11.40;99.90;;;;;;5076841;28;20003;-70
2022/10/15 07:04:06;;;;;;;;;;;11.40;99.90;;;;;;5077134;28;19917;-70
2022/10/15 07:06:33;;;;;;;;;;;11.40;99.90;;;;;;5077125;28;19921;-70
2022/10/15 07:09:00;;;;;;;;;;;11.40;99.90;;;;;;5076803;28;20380;-70
2022/10/15 07:11:25;;;;;;;;;;;11.40;99.90;;;;;;5076735;28;20276;-70
2022/10/15 07:13:51;;;;;;;;;;;11.40;99.90;;;;;;5076499;28;19920;-70
2022/10/15 07:16:17;;;;;;;;;;;11.40;99.90;;;;;;5076605;28;19913;-70
2022/10/15 07:18:42;;;;;;;;;;;11.40;99.90;;;;;;5075291;28;20007;-70
2022/10/15 07:21:09;;;;;;;;;;;11.40;99.90;;;;;;5076566;28;19978;-70
2022/10/15 07:23:34;;;;;;;;;;;11.40;99.90;;;;;;5076542;28;19930;-70
2022/10/15 07:26:00;;;;;;;;;;;11.40;99.90;;;;;;5077034;28;19913;-70
2022/10/15 07:28:26;;;;;;;;;;;11.40;99.90;;;;;;5076374;28;19912;-70
2022/10/15 07:30:52;;;;;;;;;;;11.40;99.90;;;;;;5076711;28;19916;-70
2022/10/15 07:33:17;;;;;;;;;;;11.50;99.90;;;;;;5076531;28;19923;-71
2022/10/15 07:35:43;;;;;;;;;;;11.50;99.90;;;;;;5076596;28;19912;-70
2022/10/15 07:38:08;;;;;;;;;;;11.50;99.90;;;;;;5076474;28;19916;-71
2022/10/15 07:40:34;;;;;;;;;;;11.60;99.90;;;;;;5076041;28;19916;-71
2022/10/15 07:42:59;;;;;;;;;;;11.60;99.90;;;;;;5076110;28;19913;-71
2022/10/15 07:45:25;;;;;;;;;;;11.60;99.90;;;;;;5076147;28;19912;-70
2022/10/15 07:47:51;;;;;;;;;;;11.70;99.90;;;;;;5075822;28;19909;-71
2022/10/15 07:50:17;;;;;;;;;;;11.70;99.90;;;;;;5075959;28;19913;-70
2022/10/15 07:52:42;;;;;;;;;;;11.80;99.90;;;;;;5075587;28;20018;-71
2022/10/15 07:55:08;;;;;;;;;;;11.80;99.90;;;;;;5074474;28;19947;-71
2022/10/15 07:57:34;;;;;;;;;;;11.80;99.90;;;;;;5075904;28;19913;-70
2022/10/15 07:59:59;;;;;;;;;;;11.90;99.90;;;;;;5076608;28;19984;-71
2022/10/15 08:02:25;;;;;;;;;;;11.90;99.90;;;;;;5075578;28;19958;-70
2022/10/15 08:04:50;;;;;;;;;;;11.90;99.90;;;;;;5057732;28;19913;-71
2022/10/15 08:07:16;;;;;;;;;;;11.90;99.90;;;;;;5075335;28;19917;-71
2022/10/15 08:09:42;;;;;;;;;;;12.00;99.90;;;;;;5075821;28;20007;-71
2022/10/15 08:12:07;;;;;;;;;;;12.00;99.90;;;;;;5075164;28;19916;-71
2022/10/15 08:14:33;;;;;;;;;;;12.00;99.90;;;;;;5074480;28;19977;-71
2022/10/15 08:17:00;;;;;;;;;;;12.10;99.90;;;;;;5073415;28;19909;-71
2022/10/15 08:19:26;;;;;;;;;;;12.10;99.90;;;;;;5074463;28;19919;-71
2022/10/15 08:21:51;;;;;;;;;;;12.10;99.90;;;;;;5075105;28;19920;-71
2022/10/15 08:24:17;;;;;;;;;;;12.20;99.90;;;;;;5073922;28;19918;-71
2022/10/15 08:26:42;;;;;;;;;;;12.20;99.90;;;;;;5076273;28;19912;-71
2022/10/15 08:29:09;;;;;;;;;;;12.30;99.90;;;;;;5084560;28;19966;-71
2022/10/15 08:31:34;;;;;;;;;;;12.30;99.90;;;;;;5073931;28;20292;-71
2022/10/15 08:34:00;;;;;;;;;;;12.30;99.90;;;;;;5072680;28;19927;-71
2022/10/15 08:36:26;;;;;;;;;;;12.50;99.90;;;;;;5055197;28;19909;-72
2022/10/15 08:38:51;;;;;;;;;;;12.50;99.90;;;;;;5055058;28;20016;-73
2022/10/15 08:41:22;;;;;;;;;;;12.60;99.90;;;;;;5067595;28;19942;-71
2022/10/15 08:43:48;;;;;;;;;;;12.60;99.90;;;;;;5075285;28;20329;-71
2022/10/15 08:46:16;;;;;;;;;;;12.70;99.90;;;;;;5074907;28;19936;-72
2022/10/15 08:48:47;;;;;;;;;;;12.70;99.90;;;;;;5074809;28;19912;-72
2022/10/15 08:51:15;;;;;;;;;;;12.80;99.90;;;;;;5074672;28;19947;-72
2022/10/15 08:53:48;;;;;;;;;;;12.80;99.90;;;;;;5073426;28;20015;-72
2022/10/15 08:56:19;;;;;;;;;;;12.90;99.90;;;;;;5064201;28;19909;-71
2022/10/15 08:59:11;;;;;;;;;;;12.90;99.90;;;;;;5076850;28;19912;-71
2022/10/15 09:01:37;;;;;;;;;;;12.90;99.90;;;;;;5031558;28;20367;-72
2022/10/15 09:04:23;;;;;;;;;;;13.00;99.90;;;;;;5057497;28;19915;-72
2022/10/15 09:06:51;;;;;;;;;;;13.10;99.90;;;;;;5066017;28;19909;-72
2022/10/15 09:09:21;;;;;;;;;;;13.20;99.90;;;;;;5060367;28;19912;-72
2022/10/15 09:11:47;;;;;;;;;;;13.20;99.90;;;;;;5076378;28;19962;-72
2022/10/15 09:14:18;;;;;;;;;;;13.20;99.90;;;;;;5084685;28;20403;-72
2022/10/15 09:16:47;;;;;;;;;;;13.20;99.90;;;;;;5073630;28;19958;-72
2022/10/15 09:19:20;;;;;;;;;;;13.20;99.90;;;;;;5076095;28;19967;-71
2022/10/15 09:21:47;;;;;;;;;;;13.30;99.90;;;;;;5074203;28;20054;-72
2022/10/15 09:24:16;;;;;;;;;;;13.30;99.90;;;;;;5074509;28;19935;-71
2022/10/15 09:27:03;;;;;;;;;;;13.30;99.90;;;;;;5074134;28;19908;-71
2022/10/15 09:29:51;;;;;;;;;;;13.30;99.90;;;;;;5073963;28;19912;-71
2022/10/15 09:32:16;;;;;;;;;;;13.40;99.90;;;;;;5074312;28;19954;-71
2022/10/15 09:34:47;;;;;;;;;;;13.40;99.90;;;;;;5072771;28;19995;-71
2022/10/15 09:37:18;;;;;;;;;;;13.40;99.90;;;;;;5074317;28;19916;-71
2022/10/15 09:39:53;;;;;;;;;;;13.50;99.90;;;;;;5080087;28;19916;-71
2022/10/15 09:42:19;;;;;;;;;;;13.50;99.90;;;;;;5070152;28;19913;-71
2022/10/15 09:44:45;;;;;;;;;;;13.50;99.90;;;;;;5073905;28;19909;-71
2022/10/15 09:47:22;;;;;;;;;;;13.60;99.90;;;;;;5073598;28;19915;-71
2022/10/15 09:49:48;;;;;;;;;;;13.60;99.90;;;;;;5073893;28;20386;-71
2022/10/15 09:52:19;;;;;;;;;;;13.60;99.90;;;;;;5074677;28;20007;-71
2022/10/15 09:54:51;;;;;;;;;;;13.70;99.90;;;;;;5073973;28;20441;-71
2022/10/15 09:57:18;;;;;;;;;;;13.70;99.90;;;;;;5073740;28;19908;-71
2022/10/15 10:00:10;;;;;;;;;;;13.70;99.90;;;;;;5073949;28;19912;-71
2022/10/15 10:02:36;;;;;;;;;;;13.80;99.90;;;;;;5072458;28;19914;-71
2022/10/15 10:05:27;;;;;;;;;;;13.80;99.90;;;;;;5073950;28;20003;-71
2022/10/15 10:08:06;;;;;;;;;;;13.90;99.90;;;;;;5073915;28;19954;-71
2022/10/15 10:10:32;;;;;;;;;;;13.90;99.90;;;;;;5073562;28;20322;-71
2022/10/15 10:12:57;;;;;;;;;;;13.90;99.90;;;;;;5073323;28;19957;-72
2022/10/15 10:15:23;;;;;;;;;;;13.90;99.90;;;;;;5072975;28;19917;-71
2022/10/15 10:17:52;;;;;;;;;;;14.00;99.90;;;;;;5073174;28;19958;-71
2022/10/15 10:20:19;;;;;;;;;;;14.00;99.90;;;;;;5072954;28;19915;-71
2022/10/15 10:22:46;;;;;;;;;;;14.10;99.90;;;;;;5072679;28;19958;-71
2022/10/15 10:25:37;;;;;;;;;;;14.10;99.90;;;;;;5073269;28;19943;-71
2022/10/15 10:28:05;;;;;;;;;;;14.20;99.90;;;;;;5069955;28;20287;-71
2022/10/15 10:30:59;;;;;;;;;;;14.20;99.90;;;;;;5075370;28;19916;-71
2022/10/15 10:33:27;;;;;;;;;;;14.20;99.90;;;;;;5073864;28;19917;-69
2022/10/15 10:35:53;;;;;;;;;;;14.30;99.90;;;;;;5076904;28;19909;-71
2022/10/15 10:38:39;;;;;;;;;;;14.40;99.90;;;;;;5077619;28;19924;-71
2022/10/15 10:41:07;;;;;;;;;;;14.40;99.90;;;;;;5078389;28;19923;-71
2022/10/15 10:43:34;;;;;;;;;;;14.40;99.90;;;;;;5076893;28;19916;-72
2022/10/15 10:46:04;;;;;;;;;;;14.40;99.90;;;;;;5076643;28;19913;-71
2022/10/15 10:48:38;;;;;;;;;;;14.50;99.90;;;;;;5076974;28;19916;-71
2022/10/15 10:51:14;;;;;;;;;;;14.50;99.90;;;;;;5074618;28;19948;-71
2022/10/15 10:53:52;;;;;;;;;;;14.60;99.90;;;;;;5076549;28;20033;-71
2022/10/15 10:56:21;;;;;;;;;;;14.60;99.90;;;;;;5075831;28;19912;-71
2022/10/15 10:58:47;;;;;;;;;;;14.60;99.90;;;;;;5081687;28;20283;-71
2022/10/15 11:01:14;;;;;;;;;;;14.60;99.90;;;;;;5097282;28;20435;-71
2022/10/15 11:03:44;;;;;;;;;;;14.60;99.90;;;;;;5082203;28;19923;-71
2022/10/15 11:06:12;;;;;;;;;;;14.70;99.90;;;;;;5076327;28;20387;-72
2022/10/15 11:09:01;;;;;;;;;;;14.70;99.90;;;;;;5075907;28;20018;-72
2022/10/15 11:11:44;;;;;;;;;;;14.80;99.90;;;;;;5067819;28;19915;-72
2022/10/15 11:14:16;;;;;;;;;;;14.80;99.90;;;;;;5076912;28;19913;-72
2022/10/15 11:16:48;;;;;;;;;;;14.90;99.90;;;;;;5076450;28;19947;-71
2022/10/15 11:19:32;;;;;;;;;;;15.00;99.90;;;;;;5076683;28;19908;-71
2022/10/15 11:22:19;;;;;;;;;;;15.10;99.90;;;;;;5076566;28;20282;-71
2022/10/15 11:24:50;;;;;;;;;;;15.20;99.90;;;;;;5076748;28;20284;-71
2022/10/15 11:27:25;;;;;;;;;;;15.20;99.90;;;;;;5076447;28;19912;-71
2022/10/15 11:30:09;;;;;;;;;;;15.30;99.90;;;;;;5076360;28;20287;-71
2022/10/15 11:32:42;;;;;;;;;;;15.30;99.90;;;;;;5076059;28;19909;-71
2022/10/15 11:35:13;;;;;;;;;;;15.40;99.90;;;;;;5076580;28;20235;-72
2022/10/15 11:37:39;;;;;;;;;;;15.40;99.90;;;;;;5076264;28;20265;-72
2022/10/15 11:40:19;;;;;;;;;;;15.50;99.90;;;;;;5076203;28;19927;-72
2022/10/15 11:42:45;;;;;;;;;;;15.60;99.90;;;;;;5075692;28;19915;-72
2022/10/15 11:45:13;;;;;;;;;;;15.70;99.90;;;;;;5076143;28;19909;-71
2022/10/15 11:47:39;;;;;;;;;;;15.80;99.90;;;;;;5074677;28;19909;-72
2022/10/15 11:50:10;;;;;;;;;;;15.90;99.90;;;;;;5075926;28;19935;-72
2022/10/15 11:52:42;;;;;;;;;;;16.00;99.90;;;;;;5076011;28;19913;-72
2022/10/15 11:55:11;;;;;;;;;;;16.00;99.90;;;;;;5075852;28;19912;-72
2022/10/15 11:57:39;;;;;;;;;;;16.00;99.90;;;;;;5074573;28;20277;-71
2022/10/15 12:00:10;;;;;;;;;;;16.00;99.90;;;;;;5075923;28;19920;-71
2022/10/15 12:02:36;;;;;;;;;;;16.00;99.90;;;;;;5075558;28;19955;-71
2022/10/15 12:05:07;;;;;;;;;;;16.20;99.90;;;;;;5075985;28;19940;-71
2022/10/15 12:07:36;;;;;;;;;;;16.30;99.90;;;;;;5075726;28;20431;-71
2022/10/15 12:10:25;;;;;;;;;;;16.30;99.90;;;;;;5075594;28;20240;-71
2022/10/15 12:13:09;;;;;;;;;;;16.40;99.90;;;;;;5075623;28;20241;-71
2022/10/15 12:15:57;;;;;;;;;;;16.50;99.90;;;;;;5075206;28;19958;-73
2022/10/15 12:18:38;;;;;;;;;;;16.40;99.90;;;;;;5080917;28;19916;-72
2022/10/15 12:21:24;;;;;;;;;;;16.50;99.90;;;;;;5085481;28;20007;-72
2022/10/15 12:23:49;;;;;;;;;;;16.60;99.90;;;;;;5075359;28;19912;-71
2022/10/15 12:26:26;;;;;;;;;;;16.70;99.90;;;;;;5088167;28;19981;-72
2022/10/15 12:28:54;;;;;;;;;;;16.80;99.90;;;;;;5095452;28;20010;-72
2022/10/15 12:31:20;;;;;;;;;;;16.80;99.90;;;;;;5094154;28;20368;-73
2022/10/15 12:33:46;;;;;;;;;;;16.80;99.90;;;;;;5095124;28;19916;-71
2022/10/15 12:36:17;;;;;;;;;;;16.90;99.90;;;;;;5095355;28;19935;-71
2022/10/15 12:38:52;;;;;;;;;;;16.90;99.90;;;;;;5095259;28;19908;-71
2022/10/15 12:41:18;;;;;;;;;;;16.90;99.90;;;;;;5082644;28;19916;-71
2022/10/15 12:43:47;;;;;;;;;;;17.00;99.90;;;;;;5075606;28;19957;-71
2022/10/15 12:46:13;;;;;;;;;;;17.00;99.90;;;;;;5075322;28;19938;-71
2022/10/15 12:48:40;;;;;;;;;;;17.00;99.90;;;;;;5074308;28;19997;-71
2022/10/15 12:51:14;;;;;;;;;;;17.10;99.90;;;;;;5074825;28;19913;-71
2022/10/15 12:53:44;;;;;;;;;;;17.10;99.90;;;;;;5072298;28;19966;-71
2022/10/15 12:56:10;;;;;;;;;;;17.20;99.90;;;;;;5074789;28;19957;-72
2022/10/15 12:58:36;;;;;;;;;;;17.30;99.90;;;;;;5073825;28;19999;-73
2022/10/15 13:01:25;;;;;;;;;;;17.40;99.90;;;;;;5073221;28;19920;-72
2022/10/15 13:03:50;;;;;;;;;;;17.50;99.90;;;;;;5073524;28;19959;-72
2022/10/15 13:06:23;;;;;;;;;;;17.50;99.90;;;;;;5074537;28;19990;-72
2022/10/15 13:08:55;;;;;;;;;;;17.60;99.90;;;;;;5075288;28;19909;-72
2022/10/15 13:11:23;;;;;;;;;;;17.60;99.90;;;;;;5074674;28;20328;-72
2022/10/15 13:13:50;;;;;;;;;;;17.60;99.90;;;;;;5073199;28;19912;-72
2022/10/15 13:16:15;;;;;;;;;;;17.60;99.90;;;;;;5074315;28;19912;-72
2022/10/15 13:18:46;;;;;;;;;;;17.80;99.90;;;;;;5074010;28;20012;-72
2022/10/15 13:21:12;;;;;;;;;;;17.80;99.90;;;;;;5074555;28;19917;-71
2022/10/15 13:23:43;;;;;;;;;;;17.90;99.90;;;;;;5066301;28;19909;-72
2022/10/15 13:26:10;;;;;;;;;;;17.90;99.90;;;;;;5054433;28;19951;-72
2022/10/15 13:28:37;;;;;;;;;;;17.90;99.90;;;;;;5054048;28;19919;-72
2022/10/15 13:31:05;;;;;;;;;;;18.00;99.90;;;;;;5054354;28;19916;-72
2022/10/15 13:33:31;;;;;;;;;;;18.10;99.90;;;;;;5053769;28;19913;-71
2022/10/15 13:36:04;;;;;;;;;;;18.30;99.90;;;;;;5053995;28;20288;-70
2022/10/15 13:38:30;;;;;;;;;;;18.30;99.90;;;;;;5054102;28;19999;-71
2022/10/15 13:40:55;;;;;;;;;;;18.20;99.90;;;;;;5063173;28;19997;-71
2022/10/15 13:43:22;;;;;;;;;;;18.20;99.90;;;;;;5074216;28;20387;-73
2022/10/15 13:45:57;;;;;;;;;;;18.30;99.90;;;;;;5073789;28;19908;-73
2022/10/15 13:48:27;;;;;;;;;;;18.40;99.90;;;;;;5073670;28;20450;-71
2022/10/15 13:51:03;;;;;;;;;;;18.40;99.90;;;;;;5074083;28;19912;-71
2022/10/15 13:53:30;;;;;;;;;;;18.50;99.90;;;;;;5074248;28;20011;-71
2022/10/15 13:55:56;;;;;;;;;;;18.50;99.90;;;;;;5073976;28;19915;-71
2022/10/15 13:58:35;;;;;;;;;;;18.60;99.90;;;;;;5073616;28;20007;-72
2022/10/15 14:01:06;;;;;;;;;;;18.60;99.90;;;;;;5074183;28;20418;-72
2022/10/15 14:03:32;;;;;;;;;;;18.70;99.90;;;;;;5073530;28;20420;-72
2022/10/15 14:06:07;;;;;;;;;;;18.60;99.90;;;;;;5073533;28;19908;-72
2022/10/15 14:08:34;;;;;;;;;;;18.70;99.90;;;;;;5073749;28;20020;-73
2022/10/15 14:11:00;;;;;;;;;;;18.70;99.90;;;;;;5073535;28;19912;-71
2022/10/15 14:13:26;;;;;;;;;;;18.80;99.90;;;;;;5073705;28;19964;-72
2022/10/15 14:15:56;;;;;;;;;;;18.80;99.90;;;;;;5071828;28;20454;-73
2022/10/15 14:18:33;;;;;;;;;;;18.60;99.90;;;;;;5073202;28;19955;-72
2022/10/15 14:20:58;;;;;;;;;;;18.40;99.90;;;;;;5072161;28;19915;-73
2022/10/15 14:23:26;;;;;;;;;;;18.20;99.90;;;;;;5073640;28;19962;-73
2022/10/15 14:25:53;;;;;;;;;;;18.10;99.90;;;;;;5073699;28;20003;-72